createdAt,value
2022-12-27T00:00:16.362Z,8.50
2022-12-27T00:03:40.440Z,8.52
2022-12-27T00:06:43.312Z,8.54
2022-12-27T00:09:46.234Z,8.51
2022-12-27T00:12:49.053Z,8.51
2022-12-27T00:15:51.949Z,8.52
2022-12-27T00:18:54.842Z,8.51
2022-12-27T00:21:57.767Z,8.51
2022-12-27T00:25:00.569Z,8.49
2022-12-27T00:28:03.569Z,8.47
2022-12-27T00:31:06.914Z,8.41
2022-12-27T00:34:10.781Z,8.41
2022-12-27T00:37:13.714Z,8.43
2022-12-27T00:40:16.633Z,8.47
2022-12-27T00:43:19.456Z,8.56
2022-12-27T00:46:22.298Z,8.55
2022-12-27T00:49:26.127Z,8.55
2022-12-27T00:52:28.929Z,8.55
2022-12-27T00:55:31.765Z,8.53
2022-12-27T00:58:40.499Z,8.52
2022-12-27T01:01:43.875Z,8.53
2022-12-27T01:04:46.724Z,8.54
2022-12-27T01:07:49.515Z,8.56
2022-12-27T01:10:52.291Z,8.53
2022-12-27T01:14:00.683Z,8.47
2022-12-27T01:17:03.620Z,8.42
2022-12-27T01:20:07.228Z,8.36
2022-12-27T01:23:10.076Z,8.37
2022-12-27T01:26:19.602Z,8.42
2022-12-27T01:29:25.525Z,8.45
2022-12-27T01:32:28.438Z,8.45
2022-12-27T01:35:31.354Z,8.48
2022-12-27T01:38:34.142Z,8.44
2022-12-27T01:42:01.551Z,8.41
2022-12-27T01:45:26.070Z,8.40
2022-12-27T01:48:29.038Z,8.40
2022-12-27T01:51:31.863Z,8.33
2022-12-27T01:54:34.925Z,8.34
2022-12-27T01:57:38.219Z,8.32
2022-12-27T02:00:44.420Z,8.33
2022-12-27T02:03:52.869Z,8.31
2022-12-27T02:06:55.798Z,8.34
2022-12-27T02:10:00.439Z,8.35
2022-12-27T02:13:06.117Z,8.37
2022-12-27T02:16:18.490Z,8.35
2022-12-27T02:19:40.833Z,8.30
2022-12-27T02:23:21.718Z,8.26
2022-12-27T02:26:31.124Z,8.21
2022-12-27T02:29:51.741Z,8.15
2022-12-27T02:33:01.914Z,8.12
2022-12-27T02:36:10.453Z,8.09
2022-12-27T02:39:16.224Z,8.06
2022-12-27T02:42:39.468Z,8.00
2022-12-27T02:46:21.249Z,7.96
2022-12-27T02:49:47.804Z,7.93
2022-12-27T02:53:10.398Z,7.87
2022-12-27T02:56:38.070Z,7.81
2022-12-27T03:00:08.870Z,7.73
2022-12-27T03:03:29.069Z,7.56
2022-12-27T03:06:47.193Z,7.48
2022-12-27T03:10:21.422Z,7.46
2022-12-27T03:13:53.734Z,7.39
2022-12-27T03:17:07.136Z,7.35
2022-12-27T03:20:34.703Z,7.30
2022-12-27T03:23:58.721Z,7.27
2022-12-27T03:27:05.216Z,7.24
2022-12-27T03:30:28.271Z,7.21
2022-12-27T03:33:33.392Z,7.17
2022-12-27T03:36:54.920Z,7.14
2022-12-27T03:40:07.577Z,7.09
2022-12-27T03:43:16.181Z,7.06
2022-12-27T03:46:39.128Z,7.04
2022-12-27T03:49:51.569Z,7.07
2022-12-27T03:53:13.258Z,7.05
2022-12-27T03:56:16.129Z,7.05
2022-12-27T03:59:18.975Z,7.03
2022-12-27T04:02:22.131Z,6.98
2022-12-27T04:05:25.105Z,6.97
2022-12-27T04:08:46.792Z,6.92
2022-12-27T04:12:08.284Z,6.85
2022-12-27T04:15:30.143Z,6.73
2022-12-27T04:18:51.835Z,6.60
2022-12-27T04:22:13.199Z,6.45
2022-12-27T04:25:34.913Z,6.31
2022-12-27T04:28:56.630Z,6.21
2022-12-27T04:32:18.276Z,6.16
2022-12-27T04:35:21.420Z,6.14
2022-12-27T04:38:24.269Z,6.23
2022-12-27T04:41:45.784Z,6.34
2022-12-27T04:45:13.275Z,6.39
2022-12-27T04:48:36.944Z,5.34
2022-12-27T04:51:58.215Z,4.57
2022-12-27T04:55:17.046Z,4.03
2022-12-27T04:58:19.813Z,3.80
2022-12-27T05:01:41.554Z,3.67
2022-12-27T05:04:45.501Z,3.50
2022-12-27T05:08:18.067Z,3.35
2022-12-27T05:11:39.933Z,3.21
2022-12-27T05:14:43.042Z,3.17
2022-12-27T05:17:45.959Z,3.11
2022-12-27T05:20:48.984Z,3.05
2022-12-27T05:24:10.632Z,3.01
2022-12-27T05:27:13.570Z,2.97
2022-12-27T05:30:16.519Z,2.96
2022-12-27T05:33:19.362Z,2.93
2022-12-27T05:36:22.536Z,2.94
2022-12-27T05:39:25.338Z,2.94
2022-12-27T05:42:28.227Z,2.89
2022-12-27T05:45:31.213Z,2.82
2022-12-27T05:48:34.827Z,2.79
2022-12-27T05:51:37.677Z,2.70
2022-12-27T05:54:40.468Z,2.64
2022-12-27T05:57:43.294Z,2.54
2022-12-27T06:00:46.154Z,2.46
2022-12-27T06:03:48.972Z,2.42
2022-12-27T06:06:51.883Z,2.41
2022-12-27T06:09:54.788Z,2.38
2022-12-27T06:13:00.843Z,2.30
2022-12-27T06:16:05.899Z,2.17
2022-12-27T06:19:08.710Z,2.06
2022-12-27T06:22:11.481Z,1.93
2022-12-27T06:25:15.138Z,1.82
2022-12-27T06:28:18.012Z,1.70
2022-12-27T06:31:21.942Z,1.71
2022-12-27T06:34:24.755Z,1.74
2022-12-27T06:37:27.679Z,1.74
2022-12-27T06:40:30.505Z,1.74
2022-12-27T06:43:34.085Z,1.72
2022-12-27T06:46:37.059Z,1.72
2022-12-27T06:49:39.849Z,1.73
2022-12-27T06:52:42.615Z,1.78
2022-12-27T06:55:45.440Z,1.77
2022-12-27T06:58:49.443Z,1.77
2022-12-27T07:01:52.402Z,1.79
2022-12-27T07:04:55.314Z,1.85
2022-12-27T07:07:58.102Z,1.88
2022-12-27T07:11:07.204Z,1.89
2022-12-27T07:14:10.647Z,1.91
2022-12-27T07:17:13.445Z,1.96
2022-12-27T07:20:16.302Z,1.97
2022-12-27T07:23:19.488Z,2.00
2022-12-27T07:26:27.011Z,2.07
2022-12-27T07:29:29.824Z,2.11
2022-12-27T07:32:32.620Z,2.16
2022-12-27T07:35:37.618Z,2.20
2022-12-27T07:38:44.753Z,2.22
2022-12-27T07:41:47.518Z,2.22
2022-12-27T07:44:50.430Z,2.22
2022-12-27T07:47:57.839Z,2.24
2022-12-27T07:53:14.521Z,2.30
2022-12-27T07:56:41.133Z,2.36
2022-12-27T08:00:15.583Z,2.46
2022-12-27T08:03:19.620Z,2.50
2022-12-27T08:06:31.368Z,2.56
2022-12-27T08:09:38.069Z,2.64
2022-12-27T08:12:40.984Z,2.68
2022-12-27T08:15:44.484Z,2.69
2022-12-27T08:18:48.252Z,2.71
2022-12-27T08:21:51.074Z,2.72
2022-12-27T08:24:55.826Z,2.76
2022-12-27T08:28:07.333Z,2.83
2022-12-27T08:31:11.957Z,2.88
2022-12-27T08:34:14.959Z,2.92
2022-12-27T08:37:17.821Z,3.00
2022-12-27T08:40:20.691Z,3.10
2022-12-27T08:43:23.551Z,3.21
2022-12-27T08:46:26.369Z,3.30
2022-12-27T08:49:29.209Z,3.33
2022-12-27T08:52:32.001Z,3.26
2022-12-27T08:55:35.060Z,3.24
2022-12-27T08:58:37.865Z,3.21
2022-12-27T09:01:40.814Z,3.21
2022-12-27T09:04:43.683Z,3.27
2022-12-27T09:07:47.276Z,3.35
2022-12-27T09:10:50.122Z,3.39
2022-12-27T09:13:53.359Z,3.37
2022-12-27T09:16:56.427Z,3.37
2022-12-27T09:19:59.660Z,3.36
2022-12-27T09:23:02.472Z,3.35
2022-12-27T09:26:07.566Z,3.35
2022-12-27T09:29:10.920Z,3.33
2022-12-27T09:32:13.697Z,3.30
2022-12-27T09:35:16.867Z,3.27
2022-12-27T09:38:22.833Z,3.22
2022-12-27T09:42:12.153Z,3.19
2022-12-27T09:45:04.245Z,3.18
2022-12-27T09:48:33.389Z,3.19
2022-12-27T09:51:54.530Z,3.34
2022-12-27T09:55:05.799Z,3.43
2022-12-27T09:58:49.895Z,3.45
2022-12-27T10:01:52.972Z,3.50
2022-12-27T10:05:19.849Z,3.59
2022-12-27T10:08:26.005Z,3.79
2022-12-27T10:12:29.801Z,3.94
2022-12-27T10:15:50.112Z,4.18
2022-12-27T10:19:14.727Z,4.32
2022-12-27T10:22:35.985Z,4.28
2022-12-27T10:25:40.508Z,4.35
2022-12-27T10:28:54.332Z,4.45
2022-12-27T10:32:00.039Z,4.51
2022-12-27T10:35:04.910Z,4.54
2022-12-27T10:38:11.677Z,4.53
2022-12-27T10:41:50.910Z,4.48
2022-12-27T10:45:33.922Z,4.43
2022-12-27T10:49:10.873Z,4.40
2022-12-27T10:52:10.906Z,4.39
2022-12-27T10:55:33.651Z,4.44
2022-12-27T10:58:51.536Z,4.47
2022-12-27T11:02:02.740Z,4.45
2022-12-27T11:05:28.727Z,4.43
2022-12-27T11:08:32.011Z,4.40
2022-12-27T11:11:34.795Z,4.44
2022-12-27T11:14:37.968Z,4.48
2022-12-27T11:17:44.440Z,4.54
2022-12-27T11:20:56.356Z,4.62
2022-12-27T11:24:01.787Z,4.76
2022-12-27T11:27:05.090Z,4.94
2022-12-27T11:30:21.735Z,5.13
2022-12-27T11:33:29.442Z,5.19
2022-12-27T11:36:40.754Z,5.19
2022-12-27T11:39:55.191Z,5.18
2022-12-27T11:43:09.483Z,5.09
2022-12-27T11:46:21.814Z,5.13
2022-12-27T11:49:32.504Z,5.09
2022-12-27T11:52:54.847Z,5.01
2022-12-27T11:56:14.137Z,4.91
2022-12-27T11:59:48.277Z,4.87
2022-12-27T12:03:12.856Z,4.87
2022-12-27T12:06:28.789Z,4.80
2022-12-27T12:09:37.018Z,4.94
2022-12-27T12:13:21.629Z,5.04
2022-12-27T12:16:46.412Z,5.15
2022-12-27T12:19:58.685Z,5.14
2022-12-27T12:23:10.540Z,5.02
2022-12-27T12:26:25.203Z,4.88
2022-12-27T12:30:01.713Z,4.79
2022-12-27T12:33:31.267Z,4.82
2022-12-27T12:36:52.682Z,4.84
2022-12-27T12:40:33.811Z,4.87
2022-12-27T12:43:59.634Z,4.85
2022-12-27T12:47:29.928Z,4.88
2022-12-27T12:50:57.968Z,4.83
2022-12-27T12:54:06.885Z,4.75
2022-12-27T12:57:18.696Z,4.64
2022-12-27T13:00:51.726Z,4.62
2022-12-27T13:04:33.654Z,4.52
2022-12-27T13:07:42.375Z,4.48
2022-12-27T13:10:57.593Z,4.47
2022-12-27T13:14:19.431Z,4.47
2022-12-27T13:17:33.555Z,4.43
2022-12-27T13:20:57.773Z,4.37
2022-12-27T13:24:19.027Z,4.26
2022-12-27T13:27:35.587Z,4.17
2022-12-27T13:31:03.645Z,4.07
2022-12-27T13:34:21.788Z,3.95
2022-12-27T13:37:37.493Z,3.84
2022-12-27T13:41:15.000Z,3.71
2022-12-27T13:44:51.205Z,3.63
2022-12-27T13:48:21.829Z,3.52
2022-12-27T13:51:42.996Z,3.44
2022-12-27T13:55:03.142Z,3.33
2022-12-27T13:58:37.117Z,3.23
2022-12-27T14:01:55.502Z,3.07
2022-12-27T14:05:01.422Z,2.92
2022-12-27T14:08:35.661Z,2.83
2022-12-27T14:12:02.751Z,2.73
2022-12-27T14:15:08.543Z,2.64
2022-12-27T14:18:27.635Z,2.56
2022-12-27T14:22:02.559Z,2.51
2022-12-27T14:25:24.288Z,2.38
2022-12-27T14:29:00.067Z,2.33
2022-12-27T14:32:22.070Z,2.26
2022-12-27T14:36:01.883Z,2.20
2022-12-27T14:39:20.126Z,2.23
2022-12-27T14:43:04.807Z,2.23
2022-12-27T14:46:16.644Z,2.16
2022-12-27T14:49:34.732Z,2.08
2022-12-27T14:53:21.685Z,2.03
2022-12-27T14:56:36.871Z,2.01
2022-12-27T14:59:55.191Z,1.96
2022-12-27T15:03:09.951Z,1.89
2022-12-27T15:06:34.646Z,1.80
2022-12-27T15:10:04.821Z,1.73
2022-12-27T15:13:46.172Z,1.68
2022-12-27T15:17:03.869Z,1.61
2022-12-27T15:20:32.173Z,1.57
2022-12-27T15:23:47.238Z,1.51
2022-12-27T15:27:01.459Z,1.49
2022-12-27T15:30:12.392Z,1.45
2022-12-27T15:33:41.297Z,1.38
2022-12-27T15:36:47.309Z,1.30
2022-12-27T15:39:50.680Z,1.22
2022-12-27T15:42:59.588Z,1.20
2022-12-27T15:46:18.103Z,1.21
2022-12-27T15:49:40.006Z,1.21
2022-12-27T15:52:53.362Z,1.19
2022-12-27T15:56:22.789Z,1.19
2022-12-27T16:00:10.969Z,1.16
2022-12-27T16:03:34.569Z,1.13
2022-12-27T16:06:43.634Z,1.06
2022-12-27T16:09:46.828Z,1.05
2022-12-27T16:12:50.034Z,1.05
2022-12-27T16:15:54.420Z,1.02
2022-12-27T16:19:04.226Z,0.96
2022-12-27T16:22:23.897Z,0.90
2022-12-27T16:25:37.670Z,0.84
2022-12-27T16:28:40.580Z,0.81
2022-12-27T16:31:51.089Z,0.79
2022-12-27T16:34:56.725Z,0.80
2022-12-27T16:38:03.936Z,0.79
2022-12-27T16:41:25.241Z,0.81
2022-12-27T16:44:30.721Z,0.89
2022-12-27T16:48:06.376Z,0.97
2022-12-27T16:51:19.628Z,1.07
2022-12-27T16:54:43.690Z,1.13
2022-12-27T16:57:50.522Z,1.17
2022-12-27T17:01:05.839Z,1.18
2022-12-27T17:05:06.023Z,1.17
2022-12-27T17:08:28.968Z,1.15
2022-12-27T17:11:32.735Z,1.10
2022-12-27T17:14:38.432Z,1.04
2022-12-27T17:17:45.498Z,1.03
2022-12-27T17:20:58.506Z,1.03
2022-12-27T17:24:10.398Z,1.07
2022-12-27T17:27:25.423Z,1.13
2022-12-27T17:30:45.982Z,1.20
2022-12-27T17:34:18.393Z,1.28
2022-12-27T17:37:41.504Z,1.38
2022-12-27T17:41:09.140Z,1.43
2022-12-27T17:44:39.838Z,1.49
2022-12-27T17:47:54.334Z,1.52
2022-12-27T17:51:02.977Z,1.58
2022-12-27T17:54:42.644Z,1.60
2022-12-27T17:57:55.187Z,1.65
2022-12-27T18:01:01.493Z,1.68
2022-12-27T18:04:06.645Z,1.69
2022-12-27T18:07:14.857Z,1.72
2022-12-27T18:10:28.022Z,1.72
2022-12-27T18:13:39.681Z,1.73
2022-12-27T18:16:42.615Z,1.75
2022-12-27T18:19:45.464Z,1.78
2022-12-27T18:22:48.213Z,1.78
2022-12-27T18:25:54.826Z,1.80
2022-12-27T18:28:57.774Z,1.82
2022-12-27T18:32:08.894Z,1.83
2022-12-27T18:35:24.137Z,1.84
2022-12-27T18:38:35.579Z,1.85
2022-12-27T18:41:53.292Z,1.83
2022-12-27T18:45:02.055Z,1.84
2022-12-27T18:48:11.986Z,1.83
2022-12-27T18:51:15.139Z,1.82
2022-12-27T18:54:35.890Z,1.79
2022-12-27T18:57:38.647Z,1.76
2022-12-27T19:00:49.850Z,1.69
2022-12-27T19:04:19.030Z,1.64
2022-12-27T19:07:21.930Z,1.59
2022-12-27T19:10:27.823Z,1.55
2022-12-27T19:13:43.579Z,1.54
2022-12-27T19:16:56.169Z,1.54
2022-12-27T19:20:03.335Z,1.54
2022-12-27T19:23:35.736Z,1.57
2022-12-27T19:26:38.653Z,1.60
2022-12-27T19:29:52.435Z,1.61
2022-12-27T19:32:55.246Z,1.64
2022-12-27T19:35:58.719Z,1.67
2022-12-27T19:39:01.641Z,1.70
2022-12-27T19:42:07.921Z,1.74
2022-12-27T19:45:17.652Z,1.78
2022-12-27T19:48:20.442Z,1.83
2022-12-27T19:51:23.357Z,1.85
2022-12-27T19:54:26.196Z,1.86
2022-12-27T19:57:29.042Z,1.83
2022-12-27T20:00:32.192Z,1.80
2022-12-27T20:03:35.795Z,1.77
2022-12-27T20:06:38.931Z,1.73
2022-12-27T20:09:41.666Z,1.70
2022-12-27T20:12:44.461Z,1.63
2022-12-27T20:15:48.622Z,1.55
2022-12-27T20:18:51.397Z,1.44
2022-12-27T20:21:54.184Z,1.35
2022-12-27T20:24:56.991Z,1.27
2022-12-27T20:27:59.800Z,1.22
2022-12-27T20:31:10.860Z,1.17
2022-12-27T20:34:14.097Z,1.11
2022-12-27T20:37:22.628Z,1.04
2022-12-27T20:40:28.685Z,0.98
2022-12-27T20:43:31.545Z,0.93
2022-12-27T20:46:34.386Z,0.90
2022-12-27T20:49:37.155Z,0.85
2022-12-27T20:52:40.299Z,0.80
2022-12-27T20:55:43.097Z,0.76
2022-12-27T20:58:45.944Z,0.70
2022-12-27T21:01:54.792Z,0.67
2022-12-27T21:05:00.009Z,0.66
2022-12-27T21:08:02.795Z,0.65
2022-12-27T21:11:10.927Z,0.63
2022-12-27T21:14:13.735Z,0.63
2022-12-27T21:17:17.679Z,0.62
2022-12-27T21:20:20.611Z,0.59
2022-12-27T21:23:23.423Z,0.61
2022-12-27T21:26:32.278Z,0.63
2022-12-27T21:29:35.229Z,0.66
2022-12-27T21:32:38.031Z,0.70
2022-12-27T21:35:40.824Z,0.74
2022-12-27T21:38:44.374Z,0.78
2022-12-27T21:41:47.152Z,0.85
2022-12-27T21:44:49.944Z,0.91
2022-12-27T21:47:52.728Z,0.95
2022-12-27T21:50:55.682Z,1.00
2022-12-27T21:53:59.238Z,1.01
2022-12-27T21:57:02.174Z,1.03
2022-12-27T22:00:05.513Z,1.03
2022-12-27T22:03:08.536Z,1.04
2022-12-27T22:06:11.970Z,1.05
2022-12-27T22:09:15.595Z,1.05
2022-12-27T22:12:18.400Z,1.02
2022-12-27T22:15:21.305Z,0.98
2022-12-27T22:18:24.734Z,0.94
2022-12-27T22:21:30.986Z,0.86
2022-12-27T22:24:33.897Z,0.79
2022-12-27T22:27:36.812Z,0.69
2022-12-27T22:30:40.947Z,0.59
2022-12-27T22:33:44.047Z,0.49
2022-12-27T22:36:51.862Z,0.41
2022-12-27T22:39:54.838Z,0.35
2022-12-27T22:42:57.652Z,0.30
2022-12-27T22:46:00.546Z,0.27
2022-12-27T22:49:04.683Z,0.25
2022-12-27T22:52:07.467Z,0.24
2022-12-27T22:55:11.504Z,0.22
2022-12-27T22:58:14.515Z,0.20
2022-12-27T23:01:22.691Z,0.17
2022-12-27T23:04:25.692Z,0.14
2022-12-27T23:08:03.481Z,0.13
2022-12-27T23:10:51.601Z,0.14
2022-12-27T23:13:57.740Z,0.15
2022-12-27T23:17:00.945Z,0.15
2022-12-27T23:20:04.278Z,0.15
2022-12-27T23:23:07.133Z,0.12
2022-12-27T23:26:14.171Z,0.08
2022-12-27T23:29:17.021Z,0.02
2022-12-27T23:32:19.863Z,-0.01
2022-12-27T23:35:22.666Z,-0.01
2022-12-27T23:38:26.446Z,0.00
2022-12-27T23:41:29.343Z,0.01
2022-12-27T23:44:34.366Z,0.03
2022-12-27T23:47:38.205Z,0.03
2022-12-27T23:50:41.392Z,0.03
2022-12-27T23:53:44.308Z,0.03
2022-12-27T23:56:47.217Z,0.02
2022-12-27T23:59:51.825Z,0.01
